Acadia Natl Park, Maine
Current Conditions -  °F | °C
As of 1:55 AM on Thursday 23 Oct 2014 (Local Time) from KBHB Reporting Station
Overcast Overcast  
Wind Chill: 42°   Ceiling: 800
Heat Index: 48°   Visibility: 6mi
Dew Point: 48°   Wind: 17mph
Humidity: 100%   Direction: 30°NNE
Pressure: 29.99"   Gusts: 26mph
Location:  44.3°N, 68.25°W
Report Text: KBHB 230555Z AUTO 03015G23KT 6SM OVC008 09/09 A2999 RMK AO1 10090 20080 57027
Loading
Personal Weather Stations






























Interactive Weather Map
Tropical Storm Tracking
New forecast layout! Learn more

10-Day Weather Forecast

Advertisements
Track Severe Weather on mobile